sensor_id;sensor_type;location;lat;lon;timestamp;P1;durP1;ratioP1;P2;durP2;ratioP2
26034;SDS011;13809;48.632;11.576;2023-02-11T00:02:29;27.83;;;22.90;;
26034;SDS011;13809;48.632;11.576;2023-02-11T00:07:33;26.57;;;20.77;;
26034;SDS011;13809;48.632;11.576;2023-02-11T00:12:37;35.07;;;24.27;;
26034;SDS011;13809;48.632;11.576;2023-02-11T00:17:41;36.37;;;25.40;;
26034;SDS011;13809;48.632;11.576;2023-02-11T00:22:44;35.77;;;24.13;;
26034;SDS011;13809;48.632;11.576;2023-02-11T00:27:48;38.07;;;26.20;;
26034;SDS011;13809;48.632;11.576;2023-02-11T00:32:52;35.40;;;25.70;;
26034;SDS011;13809;48.632;11.576;2023-02-11T00:37:55;33.20;;;24.10;;
26034;SDS011;13809;48.632;11.576;2023-02-11T00:42:58;29.60;;;20.80;;
26034;SDS011;13809;48.632;11.576;2023-02-11T00:48:03;24.63;;;19.03;;
26034;SDS011;13809;48.632;11.576;2023-02-11T00:53:06;42.47;;;27.13;;
26034;SDS011;13809;48.632;11.576;2023-02-11T00:58:09;29.77;;;21.43;;
26034;SDS011;13809;48.632;11.576;2023-02-11T01:03:14;27.07;;;20.20;;
26034;SDS011;13809;48.632;11.576;2023-02-11T01:08:17;26.10;;;20.03;;
26034;SDS011;13809;48.632;11.576;2023-02-11T01:13:21;22.10;;;18.07;;
26034;SDS011;13809;48.632;11.576;2023-02-11T01:18:25;31.70;;;21.17;;
26034;SDS011;13809;48.632;11.576;2023-02-11T01:23:29;26.30;;;21.40;;
26034;SDS011;13809;48.632;11.576;2023-02-11T01:28:32;22.37;;;17.60;;
26034;SDS011;13809;48.632;11.576;2023-02-11T01:33:37;27.67;;;21.43;;
26034;SDS011;13809;48.632;11.576;2023-02-11T01:38:40;26.50;;;20.60;;
26034;SDS011;13809;48.632;11.576;2023-02-11T01:43:45;23.77;;;17.90;;
26034;SDS011;13809;48.632;11.576;2023-02-11T01:48:52;24.40;;;19.93;;
26034;SDS011;13809;48.632;11.576;2023-02-11T01:53:59;28.00;;;20.80;;
26034;SDS011;13809;48.632;11.576;2023-02-11T01:59:21;26.23;;;20.60;;
26034;SDS011;13809;48.632;11.576;2023-02-11T02:04:37;23.67;;;18.17;;
26034;SDS011;13809;48.632;11.576;2023-02-11T02:09:47;29.23;;;20.97;;
26034;SDS011;13809;48.632;11.576;2023-02-11T02:15:21;22.73;;;17.90;;
26034;SDS011;13809;48.632;11.576;2023-02-11T02:20:43;25.83;;;18.97;;
26034;SDS011;13809;48.632;11.576;2023-02-11T02:37:26;27.20;;;18.97;;
26034;SDS011;13809;48.632;11.576;2023-02-11T02:42:32;25.23;;;18.97;;
26034;SDS011;13809;48.632;11.576;2023-02-11T02:47:37;26.37;;;19.40;;
26034;SDS011;13809;48.632;11.576;2023-02-11T02:52:41;28.03;;;20.00;;
26034;SDS011;13809;48.632;11.576;2023-02-11T02:57:54;23.30;;;18.87;;
26034;SDS011;13809;48.632;11.576;2023-02-11T03:03:16;25.33;;;19.47;;
26034;SDS011;13809;48.632;11.576;2023-02-11T03:08:26;27.10;;;19.20;;
26034;SDS011;13809;48.632;11.576;2023-02-11T03:13:34;24.17;;;18.83;;
26034;SDS011;13809;48.632;11.576;2023-02-11T03:18:41;24.27;;;18.37;;
26034;SDS011;13809;48.632;11.576;2023-02-11T03:23:49;25.97;;;19.27;;
26034;SDS011;13809;48.632;11.576;2023-02-11T03:28:58;24.53;;;18.77;;
26034;SDS011;13809;48.632;11.576;2023-02-11T03:34:07;21.37;;;17.23;;
26034;SDS011;13809;48.632;11.576;2023-02-11T03:39:16;28.00;;;19.10;;
26034;SDS011;13809;48.632;11.576;2023-02-11T03:44:25;26.00;;;19.43;;
26034;SDS011;13809;48.632;11.576;2023-02-11T03:49:33;26.00;;;18.90;;
26034;SDS011;13809;48.632;11.576;2023-02-11T03:54:39;25.10;;;18.73;;
26034;SDS011;13809;48.632;11.576;2023-02-11T03:59:48;22.70;;;17.87;;
26034;SDS011;13809;48.632;11.576;2023-02-11T04:04:54;22.23;;;18.73;;
26034;SDS011;13809;48.632;11.576;2023-02-11T04:09:58;25.87;;;19.63;;
26034;SDS011;13809;48.632;11.576;2023-02-11T04:15:01;25.67;;;19.73;;
26034;SDS011;13809;48.632;11.576;2023-02-11T04:20:06;27.03;;;19.63;;
26034;SDS011;13809;48.632;11.576;2023-02-11T04:25:10;25.90;;;19.73;;
26034;SDS011;13809;48.632;11.576;2023-02-11T04:30:13;25.53;;;19.73;;
26034;SDS011;13809;48.632;11.576;2023-02-11T04:35:17;24.33;;;19.10;;
26034;SDS011;13809;48.632;11.576;2023-02-11T04:40:21;24.10;;;19.23;;
26034;SDS011;13809;48.632;11.576;2023-02-11T04:45:24;25.63;;;19.00;;
26034;SDS011;13809;48.632;11.576;2023-02-11T04:50:30;26.17;;;19.30;;
26034;SDS011;13809;48.632;11.576;2023-02-11T07:35:30;20.83;;;18.20;;
26034;SDS011;13809;48.632;11.576;2023-02-11T07:40:33;22.07;;;19.13;;
26034;SDS011;13809;48.632;11.576;2023-02-11T07:45:37;21.80;;;18.63;;
26034;SDS011;13809;48.632;11.576;2023-02-11T07:50:42;24.17;;;19.17;;
26034;SDS011;13809;48.632;11.576;2023-02-11T07:55:45;23.27;;;20.07;;
26034;SDS011;13809;48.632;11.576;2023-02-11T08:00:48;23.63;;;18.77;;
26034;SDS011;13809;48.632;11.576;2023-02-11T08:05:52;23.63;;;18.97;;
26034;SDS011;13809;48.632;11.576;2023-02-11T08:11:02;23.30;;;18.73;;
26034;SDS011;13809;48.632;11.576;2023-02-11T08:16:08;21.93;;;19.47;;
26034;SDS011;13809;48.632;11.576;2023-02-11T08:21:19;23.40;;;18.70;;
26034;SDS011;13809;48.632;11.576;2023-02-11T08:26:23;24.60;;;19.33;;
26034;SDS011;13809;48.632;11.576;2023-02-11T08:31:29;23.47;;;19.70;;
26034;SDS011;13809;48.632;11.576;2023-02-11T08:36:37;24.00;;;20.23;;
26034;SDS011;13809;48.632;11.576;2023-02-11T08:41:40;25.57;;;20.63;;
26034;SDS011;13809;48.632;11.576;2023-02-11T08:46:43;25.70;;;21.47;;
26034;SDS011;13809;48.632;11.576;2023-02-11T08:51:48;20.87;;;18.67;;
26034;SDS011;13809;48.632;11.576;2023-02-11T08:56:52;22.63;;;19.80;;
26034;SDS011;13809;48.632;11.576;2023-02-11T09:01:55;22.13;;;19.33;;
26034;SDS011;13809;48.632;11.576;2023-02-11T09:07:00;26.83;;;20.43;;
26034;SDS011;13809;48.632;11.576;2023-02-11T09:12:04;26.20;;;21.00;;
26034;SDS011;13809;48.632;11.576;2023-02-11T09:17:07;25.57;;;21.10;;
26034;SDS011;13809;48.632;11.576;2023-02-11T09:22:12;25.27;;;21.90;;
26034;SDS011;13809;48.632;11.576;2023-02-11T09:27:15;24.13;;;20.03;;
26034;SDS011;13809;48.632;11.576;2023-02-11T09:32:18;25.70;;;19.63;;
26034;SDS011;13809;48.632;11.576;2023-02-11T09:37:23;28.40;;;24.07;;
26034;SDS011;13809;48.632;11.576;2023-02-11T09:42:35;24.73;;;20.60;;
26034;SDS011;13809;48.632;11.576;2023-02-11T09:47:47;21.13;;;18.53;;
26034;SDS011;13809;48.632;11.576;2023-02-11T09:52:57;17.77;;;15.03;;
26034;SDS011;13809;48.632;11.576;2023-02-11T09:58:06;15.23;;;13.63;;
26034;SDS011;13809;48.632;11.576;2023-02-11T10:03:22;15.73;;;13.93;;
26034;SDS011;13809;48.632;11.576;2023-02-11T10:08:46;14.07;;;12.30;;
26034;SDS011;13809;48.632;11.576;2023-02-11T10:14:00;14.67;;;12.63;;
26034;SDS011;13809;48.632;11.576;2023-02-11T10:19:19;16.33;;;12.60;;
26034;SDS011;13809;48.632;11.576;2023-02-11T10:24:33;15.03;;;13.47;;
26034;SDS011;13809;48.632;11.576;2023-02-11T10:29:38;13.50;;;12.10;;
26034;SDS011;13809;48.632;11.576;2023-02-11T10:34:45;14.83;;;13.13;;
26034;SDS011;13809;48.632;11.576;2023-02-11T10:39:50;15.73;;;13.63;;
26034;SDS011;13809;48.632;11.576;2023-02-11T10:44:56;17.27;;;14.00;;
26034;SDS011;13809;48.632;11.576;2023-02-11T10:50:03;13.93;;;12.43;;
26034;SDS011;13809;48.632;11.576;2023-02-11T10:55:23;17.83;;;14.57;;
26034;SDS011;13809;48.632;11.576;2023-02-11T11:00:31;13.97;;;12.53;;
26034;SDS011;13809;48.632;11.576;2023-02-11T11:05:44;15.50;;;13.57;;
26034;SDS011;13809;48.632;11.576;2023-02-11T11:11:01;16.30;;;14.20;;
26034;SDS011;13809;48.632;11.576;2023-02-11T11:21:27;16.10;;;13.67;;
26034;SDS011;13809;48.632;11.576;2023-02-11T11:26:40;15.47;;;13.73;;
26034;SDS011;13809;48.632;11.576;2023-02-11T11:31:46;14.63;;;13.03;;
26034;SDS011;13809;48.632;11.576;2023-02-11T11:36:52;15.70;;;14.03;;
26034;SDS011;13809;48.632;11.576;2023-02-11T11:41:59;13.93;;;12.53;;
26034;SDS011;13809;48.632;11.576;2023-02-11T11:47:06;15.23;;;13.20;;
26034;SDS011;13809;48.632;11.576;2023-02-11T11:52:32;12.83;;;11.30;;
26034;SDS011;13809;48.632;11.576;2023-02-11T11:57:42;12.97;;;11.63;;
26034;SDS011;13809;48.632;11.576;2023-02-11T12:02:53;13.37;;;11.40;;
26034;SDS011;13809;48.632;11.576;2023-02-11T12:08:14;13.80;;;12.20;;
26034;SDS011;13809;48.632;11.576;2023-02-11T12:13:31;12.30;;;11.00;;
26034;SDS011;13809;48.632;11.576;2023-02-11T12:18:52;12.20;;;11.00;;
26034;SDS011;13809;48.632;11.576;2023-02-11T12:24:18;12.60;;;11.30;;
26034;SDS011;13809;48.632;11.576;2023-02-11T12:29:33;10.67;;;9.60;;
26034;SDS011;13809;48.632;11.576;2023-02-11T12:35:01;10.93;;;9.83;;
26034;SDS011;13809;48.632;11.576;2023-02-11T12:40:19;12.93;;;10.40;;
26034;SDS011;13809;48.632;11.576;2023-02-11T12:45:42;11.53;;;10.00;;
26034;SDS011;13809;48.632;11.576;2023-02-11T12:50:56;12.07;;;10.87;;
26034;SDS011;13809;48.632;11.576;2023-02-11T12:56:13;11.23;;;10.10;;
26034;SDS011;13809;48.632;11.576;2023-02-11T13:01:22;12.23;;;10.93;;
26034;SDS011;13809;48.632;11.576;2023-02-11T13:06:29;12.00;;;10.57;;
26034;SDS011;13809;48.632;11.576;2023-02-11T13:11:39;13.80;;;10.47;;
26034;SDS011;13809;48.632;11.576;2023-02-11T13:16:53;12.07;;;10.87;;
26034;SDS011;13809;48.632;11.576;2023-02-11T13:22:04;13.20;;;11.13;;
26034;SDS011;13809;48.632;11.576;2023-02-11T13:27:14;12.83;;;11.53;;
26034;SDS011;13809;48.632;11.576;2023-02-11T13:38:17;11.20;;;10.07;;
26034;SDS011;13809;48.632;11.576;2023-02-11T13:43:23;11.97;;;10.77;;
26034;SDS011;13809;48.632;11.576;2023-02-11T13:48:29;13.87;;;12.47;;
26034;SDS011;13809;48.632;11.576;2023-02-11T13:53:44;13.37;;;11.77;;
26034;SDS011;13809;48.632;11.576;2023-02-11T13:58:51;13.07;;;11.67;;
26034;SDS011;13809;48.632;11.576;2023-02-11T14:04:04;12.60;;;11.30;;
26034;SDS011;13809;48.632;11.576;2023-02-11T14:09:40;11.47;;;10.30;;
26034;SDS011;13809;48.632;11.576;2023-02-11T14:14:56;11.63;;;10.53;;
26034;SDS011;13809;48.632;11.576;2023-02-11T14:20:30;14.23;;;11.33;;
26034;SDS011;13809;48.632;11.576;2023-02-11T14:25:37;13.73;;;12.30;;
26034;SDS011;13809;48.632;11.576;2023-02-11T14:30:45;13.60;;;12.20;;
26034;SDS011;13809;48.632;11.576;2023-02-11T14:36:01;13.57;;;12.17;;
26034;SDS011;13809;48.632;11.576;2023-02-11T14:41:13;12.70;;;11.47;;
26034;SDS011;13809;48.632;11.576;2023-02-11T14:46:21;14.07;;;12.43;;
26034;SDS011;13809;48.632;11.576;2023-02-11T14:51:28;13.30;;;11.90;;
26034;SDS011;13809;48.632;11.576;2023-02-11T14:56:34;14.07;;;12.57;;
26034;SDS011;13809;48.632;11.576;2023-02-11T15:01:39;13.37;;;11.63;;
26034;SDS011;13809;48.632;11.576;2023-02-11T15:06:44;13.30;;;11.90;;
26034;SDS011;13809;48.632;11.576;2023-02-11T15:11:52;14.07;;;11.07;;
26034;SDS011;13809;48.632;11.576;2023-02-11T15:16:56;12.17;;;10.97;;
26034;SDS011;13809;48.632;11.576;2023-02-11T15:22:02;12.43;;;11.13;;
26034;SDS011;13809;48.632;11.576;2023-02-11T15:27:11;12.40;;;11.07;;
26034;SDS011;13809;48.632;11.576;2023-02-11T15:32:17;16.23;;;14.27;;
26034;SDS011;13809;48.632;11.576;2023-02-11T15:37:23;21.47;;;16.53;;
26034;SDS011;13809;48.632;11.576;2023-02-11T15:42:29;12.67;;;11.47;;
26034;SDS011;13809;48.632;11.576;2023-02-11T15:47:48;11.63;;;10.33;;
26034;SDS011;13809;48.632;11.576;2023-02-11T15:52:52;11.77;;;10.67;;
26034;SDS011;13809;48.632;11.576;2023-02-11T15:57:59;11.63;;;10.43;;
26034;SDS011;13809;48.632;11.576;2023-02-11T16:03:03;11.63;;;10.43;;
26034;SDS011;13809;48.632;11.576;2023-02-11T16:08:19;12.37;;;11.07;;
26034;SDS011;13809;48.632;11.576;2023-02-11T16:13:26;17.50;;;12.60;;
26034;SDS011;13809;48.632;11.576;2023-02-11T16:18:32;12.17;;;10.90;;
26034;SDS011;13809;48.632;11.576;2023-02-11T16:23:40;16.57;;;14.77;;
26034;SDS011;13809;48.632;11.576;2023-02-11T16:28:45;15.13;;;12.67;;
26034;SDS011;13809;48.632;11.576;2023-02-11T16:33:48;13.83;;;12.43;;
26034;SDS011;13809;48.632;11.576;2023-02-11T16:38:51;16.20;;;14.00;;
26034;SDS011;13809;48.632;11.576;2023-02-11T16:43:56;15.07;;;13.57;;
26034;SDS011;13809;48.632;11.576;2023-02-11T16:49:03;17.07;;;15.30;;
26034;SDS011;13809;48.632;11.576;2023-02-11T16:54:12;15.40;;;13.73;;
26034;SDS011;13809;48.632;11.576;2023-02-11T16:59:17;14.83;;;13.23;;
26034;SDS011;13809;48.632;11.576;2023-02-11T17:04:22;14.53;;;13.03;;
26034;SDS011;13809;48.632;11.576;2023-02-11T17:09:27;14.87;;;13.37;;
26034;SDS011;13809;48.632;11.576;2023-02-11T17:14:33;18.80;;;16.80;;
26034;SDS011;13809;48.632;11.576;2023-02-11T17:19:36;20.03;;;14.77;;
26034;SDS011;13809;48.632;11.576;2023-02-11T17:24:40;15.20;;;13.63;;
26034;SDS011;13809;48.632;11.576;2023-02-11T17:29:44;37.17;;;33.57;;
26034;SDS011;13809;48.632;11.576;2023-02-11T17:34:47;47.27;;;42.10;;
26034;SDS011;13809;48.632;11.576;2023-02-11T17:39:51;53.10;;;47.73;;
26034;SDS011;13809;48.632;11.576;2023-02-11T17:44:55;24.37;;;21.87;;
26034;SDS011;13809;48.632;11.576;2023-02-11T17:49:58;20.70;;;18.50;;
26034;SDS011;13809;48.632;11.576;2023-02-11T17:55:03;20.23;;;18.00;;
26034;SDS011;13809;48.632;11.576;2023-02-11T18:00:09;19.07;;;16.13;;
26034;SDS011;13809;48.632;11.576;2023-02-11T18:05:13;17.27;;;14.77;;
26034;SDS011;13809;48.632;11.576;2023-02-11T18:10:16;14.93;;;13.33;;
26034;SDS011;13809;48.632;11.576;2023-02-11T18:15:21;16.13;;;14.47;;
26034;SDS011;13809;48.632;11.576;2023-02-11T18:20:24;16.17;;;13.60;;
26034;SDS011;13809;48.632;11.576;2023-02-11T18:25:27;17.33;;;14.83;;
26034;SDS011;13809;48.632;11.576;2023-02-11T18:30:32;15.70;;;14.17;;
26034;SDS011;13809;48.632;11.576;2023-02-11T18:35:36;14.90;;;12.53;;
26034;SDS011;13809;48.632;11.576;2023-02-11T18:40:39;16.83;;;15.07;;
26034;SDS011;13809;48.632;11.576;2023-02-11T18:45:44;14.67;;;12.07;;
26034;SDS011;13809;48.632;11.576;2023-02-11T18:50:48;18.00;;;15.00;;
26034;SDS011;13809;48.632;11.576;2023-02-11T18:55:51;15.27;;;13.67;;
26034;SDS011;13809;48.632;11.576;2023-02-11T19:00:57;16.00;;;14.30;;
26034;SDS011;13809;48.632;11.576;2023-02-11T19:06:00;15.33;;;13.57;;
26034;SDS011;13809;48.632;11.576;2023-02-11T19:11:03;16.53;;;14.57;;
26034;SDS011;13809;48.632;11.576;2023-02-11T19:16:08;18.73;;;15.93;;
26034;SDS011;13809;48.632;11.576;2023-02-11T19:21:12;18.40;;;16.33;;
26034;SDS011;13809;48.632;11.576;2023-02-11T19:26:15;17.33;;;15.53;;
26034;SDS011;13809;48.632;11.576;2023-02-11T19:31:20;18.40;;;16.43;;
26034;SDS011;13809;48.632;11.576;2023-02-11T19:36:23;18.43;;;16.43;;
26034;SDS011;13809;48.632;11.576;2023-02-11T19:41:26;18.77;;;16.60;;
26034;SDS011;13809;48.632;11.576;2023-02-11T19:46:31;18.17;;;16.27;;
26034;SDS011;13809;48.632;11.576;2023-02-11T19:51:37;19.10;;;16.90;;
26034;SDS011;13809;48.632;11.576;2023-02-11T19:56:40;17.83;;;15.97;;
26034;SDS011;13809;48.632;11.576;2023-02-11T20:01:46;18.20;;;16.40;;
26034;SDS011;13809;48.632;11.576;2023-02-11T20:06:49;19.33;;;17.33;;
26034;SDS011;13809;48.632;11.576;2023-02-11T20:11:53;17.27;;;15.47;;
26034;SDS011;13809;48.632;11.576;2023-02-11T20:16:57;17.03;;;15.33;;
26034;SDS011;13809;48.632;11.576;2023-02-11T20:22:00;15.97;;;14.37;;
26034;SDS011;13809;48.632;11.576;2023-02-11T20:27:03;20.73;;;18.57;;
26034;SDS011;13809;48.632;11.576;2023-02-11T20:32:10;24.27;;;21.27;;
26034;SDS011;13809;48.632;11.576;2023-02-11T20:37:13;21.27;;;17.77;;
26034;SDS011;13809;48.632;11.576;2023-02-11T20:42:17;17.40;;;15.60;;
26034;SDS011;13809;48.632;11.576;2023-02-11T20:47:22;17.23;;;15.47;;
26034;SDS011;13809;48.632;11.576;2023-02-11T20:52:25;17.73;;;15.97;;
26034;SDS011;13809;48.632;11.576;2023-02-11T20:57:29;17.57;;;15.33;;
26034;SDS011;13809;48.632;11.576;2023-02-11T21:02:33;18.33;;;16.43;;
26034;SDS011;13809;48.632;11.576;2023-02-11T21:07:36;18.33;;;16.47;;
26034;SDS011;13809;48.632;11.576;2023-02-11T21:12:39;23.60;;;19.20;;
26034;SDS011;13809;48.632;11.576;2023-02-11T21:17:44;27.67;;;24.67;;
26034;SDS011;13809;48.632;11.576;2023-02-11T21:22:47;26.57;;;23.87;;
26034;SDS011;13809;48.632;11.576;2023-02-11T21:27:50;26.67;;;23.80;;
26034;SDS011;13809;48.632;11.576;2023-02-11T21:32:55;23.63;;;21.17;;
26034;SDS011;13809;48.632;11.576;2023-02-11T21:37:59;21.70;;;19.43;;
26034;SDS011;13809;48.632;11.576;2023-02-11T21:43:03;21.60;;;18.40;;
26034;SDS011;13809;48.632;11.576;2023-02-11T21:48:08;18.87;;;16.83;;
26034;SDS011;13809;48.632;11.576;2023-02-11T21:53:11;18.10;;;16.20;;
26034;SDS011;13809;48.632;11.576;2023-02-11T21:58:15;19.33;;;16.77;;
26034;SDS011;13809;48.632;11.576;2023-02-11T22:03:20;21.93;;;18.90;;
26034;SDS011;13809;48.632;11.576;2023-02-11T22:08:23;19.63;;;17.30;;
26034;SDS011;13809;48.632;11.576;2023-02-11T22:13:26;18.50;;;15.40;;
26034;SDS011;13809;48.632;11.576;2023-02-11T22:18:31;17.30;;;15.23;;
26034;SDS011;13809;48.632;11.576;2023-02-11T22:23:34;17.93;;;15.60;;
26034;SDS011;13809;48.632;11.576;2023-02-11T22:28:38;14.23;;;12.77;;
26034;SDS011;13809;48.632;11.576;2023-02-11T22:33:44;17.00;;;15.30;;
26034;SDS011;13809;48.632;11.576;2023-02-11T22:38:47;21.00;;;18.60;;
26034;SDS011;13809;48.632;11.576;2023-02-11T22:43:50;17.10;;;15.33;;
26034;SDS011;13809;48.632;11.576;2023-02-11T22:48:55;22.90;;;18.30;;
26034;SDS011;13809;48.632;11.576;2023-02-11T22:53:59;20.60;;;18.20;;
26034;SDS011;13809;48.632;11.576;2023-02-11T22:59:04;21.50;;;17.13;;
26034;SDS011;13809;48.632;11.576;2023-02-11T23:04:09;16.80;;;14.23;;
26034;SDS011;13809;48.632;11.576;2023-02-11T23:09:14;18.17;;;16.00;;
26034;SDS011;13809;48.632;11.576;2023-02-11T23:14:17;18.03;;;16.13;;
26034;SDS011;13809;48.632;11.576;2023-02-11T23:19:22;17.23;;;15.57;;
26034;SDS011;13809;48.632;11.576;2023-02-11T23:24:25;17.37;;;15.60;;
26034;SDS011;13809;48.632;11.576;2023-02-11T23:29:28;18.10;;;16.23;;
26034;SDS011;13809;48.632;11.576;2023-02-11T23:34:33;17.03;;;15.30;;
26034;SDS011;13809;48.632;11.576;2023-02-11T23:39:36;17.27;;;15.53;;
26034;SDS011;13809;48.632;11.576;2023-02-11T23:44:39;17.53;;;15.63;;
26034;SDS011;13809;48.632;11.576;2023-02-11T23:49:44;17.80;;;15.90;;
26034;SDS011;13809;48.632;11.576;2023-02-11T23:54:47;15.93;;;14.23;;
26034;SDS011;13809;48.632;11.576;2023-02-11T23:59:50;15.53;;;13.97;;
